createdAt,value
2023-04-18T00:01:25.057Z,3.40
2023-04-18T00:03:53.342Z,2.70
2023-04-18T00:06:22.291Z,2.80
2023-04-18T00:08:50.029Z,2.60
2023-04-18T00:11:17.679Z,3.60
2023-04-18T00:13:47.586Z,3.50
2023-04-18T00:16:15.600Z,3.40
2023-04-18T00:18:43.377Z,3.50
2023-04-18T00:21:11.151Z,4.20
2023-04-18T00:23:39.865Z,3.10
2023-04-18T00:26:07.461Z,3.60
2023-04-18T00:28:35.131Z,3.00
2023-04-18T00:31:02.890Z,2.10
2023-04-18T00:33:30.653Z,4.30
2023-04-18T00:35:58.257Z,3.40
2023-04-18T00:38:25.850Z,2.90
2023-04-18T00:40:53.444Z,2.50
2023-04-18T00:43:23.426Z,3.60
2023-04-18T00:45:51.047Z,3.40
2023-04-18T00:48:18.675Z,3.00
2023-04-18T00:50:46.332Z,2.30
2023-04-18T00:53:13.915Z,3.70
2023-04-18T00:55:41.592Z,3.20
2023-04-18T00:58:09.242Z,3.10
2023-04-18T01:00:36.896Z,2.90
2023-04-18T01:03:04.648Z,3.40
2023-04-18T01:05:32.428Z,3.80
2023-04-18T01:08:01.335Z,2.70
2023-04-18T01:10:29.249Z,3.70
2023-04-18T01:13:23.189Z,2.70
2023-04-18T01:15:54.075Z,2.90
2023-04-18T01:18:22.578Z,3.00
2023-04-18T01:20:51.107Z,2.90
2023-04-18T01:23:19.219Z,3.40
2023-04-18T01:25:47.284Z,3.40
2023-04-18T01:28:15.069Z,2.10
2023-04-18T01:30:42.706Z,2.70
2023-04-18T01:33:10.320Z,2.60
2023-04-18T01:35:38.108Z,4.00
2023-04-18T01:38:05.776Z,3.50
2023-04-18T01:40:33.404Z,3.20
2023-04-18T01:43:01.297Z,3.30
2023-04-18T01:45:28.893Z,4.00
2023-04-18T01:47:56.634Z,3.30
2023-04-18T01:50:24.442Z,3.20
2023-04-18T01:52:52.030Z,3.40
2023-04-18T01:55:19.698Z,3.60
2023-04-18T01:57:47.352Z,4.20
2023-04-18T02:00:15.854Z,4.10
2023-04-18T02:02:43.625Z,3.10
2023-04-18T02:05:11.394Z,2.80
2023-04-18T02:07:39.755Z,3.10
2023-04-18T02:10:07.913Z,2.20
2023-04-18T02:12:35.529Z,3.10
2023-04-18T02:15:03.564Z,3.10
2023-04-18T02:17:31.342Z,2.40
2023-04-18T02:19:59.007Z,2.20
2023-04-18T02:22:26.583Z,2.80
2023-04-18T02:24:54.176Z,2.90
2023-04-18T02:27:21.812Z,3.00
2023-04-18T02:29:49.420Z,3.00
2023-04-18T02:32:17.070Z,3.40
2023-04-18T02:34:44.719Z,3.30
2023-04-18T02:37:12.323Z,2.90
2023-04-18T02:39:39.890Z,2.30
2023-04-18T02:42:07.493Z,2.30
2023-04-18T02:44:35.129Z,2.20
2023-04-18T02:47:02.742Z,2.10
2023-04-18T02:49:30.385Z,2.60
2023-04-18T02:51:58.051Z,2.40
2023-04-18T02:54:25.779Z,2.30
2023-04-18T02:56:57.006Z,2.10
2023-04-18T02:59:24.693Z,2.60
2023-04-18T03:01:52.416Z,2.60
2023-04-18T03:04:20.240Z,2.90
2023-04-18T03:06:50.041Z,2.30
2023-04-18T03:09:17.896Z,3.40
2023-04-18T03:11:45.533Z,3.80
2023-04-18T03:14:13.241Z,2.80
2023-04-18T03:16:41.082Z,3.00
2023-04-18T03:19:09.246Z,3.50
2023-04-18T03:21:36.850Z,3.60
2023-04-18T03:24:04.953Z,3.20
2023-04-18T03:26:32.507Z,3.30
2023-04-18T03:29:00.106Z,3.50
2023-04-18T03:31:27.772Z,3.80
2023-04-18T03:33:55.404Z,2.50
2023-04-18T03:36:25.447Z,2.90
2023-04-18T03:38:54.698Z,3.50
2023-04-18T03:41:22.300Z,3.70
2023-04-18T03:43:49.909Z,3.90
2023-04-18T03:46:17.558Z,3.40
2023-04-18T03:48:45.285Z,3.00
2023-04-18T03:51:14.202Z,3.80
2023-04-18T03:53:41.955Z,4.10
2023-04-18T03:56:09.589Z,4.50
2023-04-18T03:58:37.194Z,4.00
2023-04-18T04:01:06.594Z,4.50
2023-04-18T04:03:34.302Z,3.70
2023-04-18T04:06:01.995Z,4.30
2023-04-18T04:08:29.642Z,6.20
2023-04-18T04:10:57.257Z,5.40
2023-04-18T04:13:24.898Z,5.00
2023-04-18T04:15:52.549Z,6.80
2023-04-18T04:18:20.401Z,6.00
2023-04-18T04:20:48.025Z,5.30
2023-04-18T04:23:15.620Z,6.10
2023-04-18T04:25:45.538Z,6.10
2023-04-18T04:28:14.044Z,8.00
2023-04-18T04:30:41.751Z,7.00
2023-04-18T04:33:09.345Z,7.40
2023-04-18T04:35:37.057Z,6.10
2023-04-18T04:38:04.661Z,6.20
2023-04-18T04:40:32.365Z,7.80
2023-04-18T04:43:00.489Z,7.30
2023-04-18T04:45:28.145Z,6.40
2023-04-18T04:47:55.936Z,6.10
2023-04-18T04:50:23.556Z,6.50
2023-04-18T04:52:51.299Z,6.70
2023-04-18T04:55:19.091Z,6.80
2023-04-18T04:57:47.824Z,9.10
2023-04-18T05:00:20.766Z,6.70
2023-04-18T05:02:49.082Z,5.10
2023-04-18T05:05:16.784Z,7.10
2023-04-18T05:07:44.364Z,5.70
2023-04-18T05:10:11.981Z,6.80
2023-04-18T05:12:39.589Z,6.90
2023-04-18T05:15:08.014Z,7.90
2023-04-18T05:17:35.661Z,7.80
2023-04-18T05:20:04.190Z,7.70
2023-04-18T05:22:32.424Z,6.80
2023-04-18T05:25:00.127Z,7.90
2023-04-18T05:27:27.821Z,8.20
2023-04-18T05:29:55.865Z,9.00
2023-04-18T05:32:23.565Z,8.70
2023-04-18T05:34:51.243Z,8.40
2023-04-18T05:37:18.873Z,7.90
2023-04-18T05:39:46.652Z,8.20
2023-04-18T05:42:14.424Z,9.30
2023-04-18T05:44:42.108Z,10.00
2023-04-18T05:47:09.991Z,7.70
2023-04-18T05:49:37.693Z,10.00
2023-04-18T05:52:05.516Z,10.50
2023-04-18T05:54:33.224Z,8.50
2023-04-18T05:57:03.194Z,8.70
2023-04-18T05:59:32.049Z,8.40
2023-04-18T06:01:59.819Z,10.40
2023-04-18T06:04:27.797Z,8.60
2023-04-18T06:06:55.588Z,10.30
2023-04-18T06:09:23.192Z,8.80
2023-04-18T06:11:50.905Z,9.10
2023-04-18T06:14:18.612Z,8.50
2023-04-18T06:16:46.269Z,9.50
2023-04-18T06:19:13.854Z,8.70
2023-04-18T06:21:42.867Z,9.20
2023-04-18T06:24:10.549Z,7.90
2023-04-18T06:26:38.160Z,7.10
2023-04-18T06:29:05.946Z,7.20
2023-04-18T06:31:33.576Z,7.50
2023-04-18T06:34:01.168Z,7.20
2023-04-18T06:36:28.817Z,6.90
2023-04-18T06:38:56.430Z,7.20
2023-04-18T06:41:24.081Z,7.00
2023-04-18T06:44:02.768Z,6.70
2023-04-18T06:46:32.758Z,6.00
2023-04-18T06:49:00.481Z,6.70
2023-04-18T06:51:28.199Z,8.40
2023-04-18T06:53:55.899Z,7.00
2023-04-18T06:56:23.652Z,6.70
2023-04-18T06:58:52.863Z,7.30
2023-04-18T07:01:20.838Z,7.20
2023-04-18T07:03:48.758Z,6.70
2023-04-18T07:06:16.608Z,6.00
2023-04-18T07:08:44.205Z,7.30
2023-04-18T07:11:13.340Z,7.70
2023-04-18T07:13:40.994Z,7.10
2023-04-18T07:16:09.426Z,5.90
2023-04-18T07:18:38.573Z,6.10
2023-04-18T07:21:09.421Z,6.90
2023-04-18T07:23:37.274Z,8.10
2023-04-18T07:26:05.895Z,7.40
2023-04-18T07:28:33.724Z,6.60
2023-04-18T07:31:03.188Z,7.20
2023-04-18T07:33:33.963Z,7.40
2023-04-18T07:36:02.173Z,7.30
2023-04-18T07:38:29.796Z,6.50
2023-04-18T07:40:58.511Z,7.00
2023-04-18T07:43:26.340Z,6.00
2023-04-18T07:45:54.058Z,7.20
2023-04-18T07:48:22.738Z,7.60
2023-04-18T07:50:50.826Z,8.00
2023-04-18T07:53:18.491Z,6.80
2023-04-18T07:55:46.719Z,7.20
2023-04-18T07:58:14.666Z,7.80
2023-04-18T08:00:43.848Z,8.30
2023-04-18T08:03:12.872Z,7.00
2023-04-18T08:05:41.962Z,6.40
2023-04-18T08:08:10.760Z,6.10
2023-04-18T08:10:38.411Z,6.80
2023-04-18T08:13:06.312Z,6.70
2023-04-18T08:15:34.061Z,6.30
2023-04-18T08:18:01.848Z,6.70
2023-04-18T08:20:29.654Z,6.70
2023-04-18T08:23:06.838Z,6.70
2023-04-18T08:25:36.692Z,6.70
2023-04-18T08:28:04.720Z,6.00
2023-04-18T08:30:32.506Z,6.40
2023-04-18T08:33:00.923Z,6.20
2023-04-18T08:35:30.519Z,6.60
2023-04-18T08:37:58.117Z,6.30
2023-04-18T08:40:25.787Z,6.90
2023-04-18T08:42:54.108Z,7.50
2023-04-18T08:45:21.830Z,6.10
2023-04-18T08:47:49.509Z,6.50
2023-04-18T08:50:18.468Z,6.30
2023-04-18T08:52:48.847Z,6.10
2023-04-18T08:55:16.537Z,5.80
2023-04-18T08:57:44.211Z,6.70
2023-04-18T09:00:12.613Z,5.70
2023-04-18T09:02:45.015Z,6.00
2023-04-18T09:05:19.102Z,5.60
2023-04-18T09:07:47.771Z,6.10
2023-04-18T09:10:33.353Z,5.80
2023-04-18T09:13:03.530Z,4.70
2023-04-18T09:15:31.725Z,5.70
2023-04-18T09:18:02.302Z,5.00
2023-04-18T09:20:41.640Z,5.60
2023-04-18T09:23:11.328Z,5.10
2023-04-18T09:25:45.488Z,6.30
2023-04-18T09:28:30.239Z,5.70
2023-04-18T09:31:09.663Z,6.10
2023-04-18T09:33:37.763Z,6.00
2023-04-18T09:36:25.148Z,5.80
2023-04-18T09:38:56.200Z,5.20
2023-04-18T09:41:24.266Z,5.40
2023-04-18T09:44:09.716Z,5.60
2023-04-18T09:46:39.375Z,6.00
2023-04-18T09:49:09.632Z,4.60
2023-04-18T09:51:38.516Z,5.10
2023-04-18T09:54:06.179Z,5.50
2023-04-18T09:56:33.829Z,4.90
2023-04-18T09:59:08.843Z,4.40
2023-04-18T10:01:36.652Z,4.70
2023-04-18T10:04:06.747Z,5.10
2023-04-18T10:06:35.190Z,4.40
2023-04-18T10:09:03.399Z,4.30
2023-04-18T10:11:31.748Z,3.80
2023-04-18T10:14:02.708Z,4.60
2023-04-18T10:16:30.401Z,4.60
2023-04-18T10:18:58.442Z,4.50
2023-04-18T10:21:27.669Z,4.30
2023-04-18T10:23:55.503Z,4.30
2023-04-18T10:26:24.083Z,5.10
2023-04-18T10:28:58.320Z,4.30
2023-04-18T10:31:27.435Z,4.60
2023-04-18T10:36:28.652Z,5.00
2023-04-18T10:39:00.800Z,4.50
2023-04-18T10:41:32.110Z,4.30
2023-04-18T10:44:09.702Z,5.00
2023-04-18T10:46:38.875Z,4.00
2023-04-18T10:49:18.752Z,3.90
2023-04-18T10:51:47.200Z,3.80
2023-04-18T10:54:24.170Z,4.00
2023-04-18T10:56:56.648Z,4.20
2023-04-18T10:59:25.455Z,4.10
2023-04-18T11:01:58.209Z,3.80
2023-04-18T11:04:25.898Z,3.70
2023-04-18T11:06:58.382Z,3.50
2023-04-18T11:09:26.062Z,3.70
2023-04-18T11:12:07.532Z,4.00
2023-04-18T11:14:45.763Z,3.90
2023-04-18T11:17:21.949Z,3.80
2023-04-18T11:19:50.362Z,3.80
2023-04-18T11:22:18.371Z,4.00
2023-04-18T11:24:46.024Z,3.70
2023-04-18T11:27:13.988Z,3.10
2023-04-18T11:29:41.790Z,3.50
2023-04-18T11:32:09.596Z,3.20
2023-04-18T11:34:37.393Z,3.30
2023-04-18T11:37:08.513Z,3.30
2023-04-18T11:39:42.920Z,3.40
2023-04-18T11:42:10.614Z,3.90
2023-04-18T11:44:40.076Z,4.00
2023-04-18T11:47:29.086Z,3.50
2023-04-18T11:50:07.018Z,4.00
2023-04-18T11:52:35.574Z,3.90
2023-04-18T11:55:13.720Z,3.90
2023-04-18T11:57:42.014Z,3.30
2023-04-18T12:00:12.245Z,2.70
2023-04-18T12:02:44.172Z,3.40
2023-04-18T12:05:15.063Z,3.10
2023-04-18T12:07:44.967Z,3.20
2023-04-18T12:10:30.989Z,4.10
2023-04-18T12:12:59.064Z,3.60
2023-04-18T12:15:28.355Z,3.20
2023-04-18T12:18:00.693Z,3.00
2023-04-18T12:20:46.397Z,2.70
2023-04-18T12:23:33.843Z,3.00
2023-04-18T12:26:05.055Z,3.00
2023-04-18T12:28:33.499Z,3.10
2023-04-18T12:31:01.881Z,3.10
2023-04-18T12:33:30.532Z,2.70
2023-04-18T12:35:58.285Z,3.30
2023-04-18T12:38:25.958Z,3.40
2023-04-18T12:40:53.576Z,3.00
2023-04-18T12:43:21.209Z,3.20
2023-04-18T12:45:49.681Z,2.80
2023-04-18T12:48:17.405Z,2.90
2023-04-18T12:50:45.004Z,2.90
2023-04-18T12:53:12.845Z,3.10
2023-04-18T12:55:40.789Z,2.70
2023-04-18T12:58:08.540Z,3.30
2023-04-18T13:00:36.240Z,2.80
2023-04-18T13:03:04.769Z,3.10
2023-04-18T13:05:34.174Z,3.60
2023-04-18T13:10:32.697Z,3.40
2023-04-18T13:13:00.516Z,2.90
2023-04-18T13:15:28.439Z,3.30
2023-04-18T13:17:57.068Z,3.00
2023-04-18T13:20:24.814Z,3.10
2023-04-18T13:22:52.492Z,2.80
2023-04-18T13:25:20.344Z,3.10
2023-04-18T13:27:50.156Z,2.90
2023-04-18T13:30:17.927Z,3.10
2023-04-18T13:32:46.271Z,3.40
2023-04-18T13:35:14.023Z,3.50
2023-04-18T13:37:41.897Z,3.40
2023-04-18T13:40:10.129Z,3.20
2023-04-18T13:42:38.416Z,3.20
2023-04-18T13:45:07.444Z,4.80
2023-04-18T13:47:35.866Z,5.10
2023-04-18T13:50:04.089Z,29.40
2023-04-18T13:52:31.759Z,7.10
2023-04-18T13:54:59.396Z,6.60
2023-04-18T13:57:28.445Z,5.40
2023-04-18T13:59:56.084Z,4.90
2023-04-18T14:02:23.908Z,4.30
2023-04-18T14:04:52.721Z,5.50
2023-04-18T14:07:20.406Z,5.20
2023-04-18T14:09:48.242Z,5.40
2023-04-18T14:12:16.061Z,3.90
2023-04-18T14:14:43.686Z,3.40
2023-04-18T14:17:11.419Z,4.70
2023-04-18T14:19:39.177Z,4.20
2023-04-18T14:22:07.831Z,6.60
2023-04-18T14:24:36.492Z,5.20
2023-04-18T14:27:04.189Z,3.90
2023-04-18T14:29:31.784Z,4.00
2023-04-18T14:31:59.411Z,5.90
2023-04-18T14:34:27.008Z,6.30
2023-04-18T14:36:54.693Z,5.70
2023-04-18T14:39:22.393Z,3.80
2023-04-18T14:41:50.052Z,7.50
2023-04-18T14:44:17.630Z,5.00
2023-04-18T14:46:45.318Z,7.10
2023-04-18T14:49:13.119Z,7.60
2023-04-18T14:51:41.127Z,6.30
2023-04-18T14:54:08.713Z,4.60
2023-04-18T14:56:36.347Z,4.70
2023-04-18T14:59:03.987Z,4.50
2023-04-18T15:01:31.669Z,5.40
2023-04-18T15:03:59.772Z,4.50
2023-04-18T15:06:28.433Z,6.30
2023-04-18T15:08:56.712Z,7.00
2023-04-18T15:11:24.453Z,5.30
2023-04-18T15:13:52.080Z,6.00
2023-04-18T15:16:19.780Z,5.00
2023-04-18T15:18:47.494Z,5.10
2023-04-18T15:21:15.104Z,5.10
2023-04-18T15:23:42.851Z,5.80
2023-04-18T15:26:10.743Z,6.40
2023-04-18T15:28:38.349Z,6.40
2023-04-18T15:31:06.096Z,6.00
2023-04-18T15:33:33.718Z,5.80
2023-04-18T15:36:01.308Z,6.20
2023-04-18T15:38:30.492Z,6.10
2023-04-18T15:40:59.972Z,7.30
2023-04-18T15:43:27.582Z,7.00
2023-04-18T15:45:55.224Z,6.80
2023-04-18T15:48:22.854Z,9.10
2023-04-18T15:50:51.198Z,6.80
2023-04-18T15:53:18.917Z,8.50
2023-04-18T15:55:46.919Z,5.80
2023-04-18T15:58:14.651Z,6.20
2023-04-18T16:00:42.294Z,7.50
2023-04-18T16:03:10.506Z,6.80
2023-04-18T16:05:38.343Z,5.80
2023-04-18T16:08:06.332Z,5.80
2023-04-18T16:10:33.937Z,6.50
2023-04-18T16:13:02.442Z,5.80
2023-04-18T16:15:34.864Z,7.50
2023-04-18T16:18:02.578Z,7.10
2023-04-18T16:20:30.276Z,9.20
2023-04-18T16:22:57.870Z,9.10
2023-04-18T16:25:25.755Z,7.60
2023-04-18T16:27:53.759Z,6.30
2023-04-18T16:30:21.492Z,9.60
2023-04-18T16:32:49.154Z,6.80
2023-04-18T16:35:16.840Z,8.50
2023-04-18T16:37:44.477Z,8.60
2023-04-18T16:40:12.294Z,7.30
2023-04-18T16:42:41.200Z,6.80
2023-04-18T16:45:08.994Z,6.40
2023-04-18T16:47:36.712Z,6.10
2023-04-18T16:50:05.210Z,7.30
2023-04-18T16:52:32.917Z,12.20
2023-04-18T16:55:00.588Z,7.50
2023-04-18T16:57:28.221Z,7.40
2023-04-18T16:59:55.900Z,7.60
2023-04-18T17:02:24.023Z,7.60
2023-04-18T17:04:51.916Z,7.50
2023-04-18T17:07:19.582Z,7.20
2023-04-18T17:09:47.240Z,6.80
2023-04-18T17:12:15.045Z,6.80
2023-04-18T17:14:42.645Z,6.40
2023-04-18T17:17:10.579Z,6.80
2023-04-18T17:19:39.187Z,6.70
2023-04-18T17:22:07.344Z,8.10
2023-04-18T17:24:35.196Z,8.30
2023-04-18T17:27:03.046Z,6.00
2023-04-18T17:29:30.957Z,8.90
2023-04-18T17:31:58.989Z,7.50
2023-04-18T17:34:26.984Z,7.40
2023-04-18T17:36:54.925Z,7.00
2023-04-18T17:39:22.875Z,7.80
2023-04-18T17:41:50.753Z,8.30
2023-04-18T17:44:18.386Z,6.60
2023-04-18T17:46:47.377Z,5.80
2023-04-18T17:49:16.840Z,6.80
2023-04-18T17:51:44.704Z,6.40
2023-04-18T17:54:13.488Z,5.90
2023-04-18T17:56:41.376Z,7.90
2023-04-18T17:59:09.862Z,7.10
2023-04-18T18:01:37.901Z,7.20
2023-04-18T18:04:05.889Z,7.60
2023-04-18T18:06:34.679Z,8.00
2023-04-18T18:09:02.940Z,7.40
2023-04-18T18:11:30.586Z,7.80
2023-04-18T18:13:58.264Z,7.60
2023-04-18T18:16:26.294Z,9.00
2023-04-18T18:18:54.074Z,9.30
2023-04-18T18:21:21.869Z,9.10
2023-04-18T18:23:49.781Z,9.50
2023-04-18T18:26:17.427Z,10.00
2023-04-18T18:28:45.152Z,11.20
2023-04-18T18:31:13.103Z,10.10
2023-04-18T18:33:41.227Z,10.50
2023-04-18T18:36:08.839Z,9.90
2023-04-18T18:38:36.860Z,12.90
2023-04-18T18:41:05.712Z,14.80
2023-04-18T18:43:33.629Z,11.30
2023-04-18T18:46:01.272Z,8.90
2023-04-18T18:48:29.260Z,8.20
2023-04-18T18:50:58.544Z,8.10
2023-04-18T18:53:26.183Z,7.70
2023-04-18T18:55:53.812Z,7.10
2023-04-18T18:58:21.747Z,7.40
2023-04-18T19:00:51.220Z,8.20
2023-04-18T19:03:21.249Z,8.10
2023-04-18T19:05:49.368Z,7.40
2023-04-18T19:08:17.283Z,10.10
2023-04-18T19:10:44.922Z,8.90
2023-04-18T19:13:12.531Z,9.80
2023-04-18T19:15:40.212Z,19.40
2023-04-18T19:18:07.933Z,22.00
2023-04-18T19:20:35.671Z,24.10
2023-04-18T19:23:03.299Z,13.20
2023-04-18T19:25:31.288Z,12.10
2023-04-18T19:27:58.937Z,11.40
2023-04-18T19:30:26.552Z,12.30
2023-04-18T19:32:54.208Z,12.80
2023-04-18T19:35:22.094Z,12.00
2023-04-18T19:37:49.918Z,11.80
2023-04-18T19:40:17.799Z,12.00
2023-04-18T19:42:46.212Z,10.60
2023-04-18T19:45:15.210Z,11.60
2023-04-18T19:47:44.431Z,11.10
2023-04-18T19:50:12.197Z,11.70
2023-04-18T19:52:39.875Z,12.20
2023-04-18T19:55:07.965Z,12.70
2023-04-18T19:57:39.635Z,12.20
2023-04-18T20:00:09.358Z,11.80
2023-04-18T20:02:37.329Z,11.00
2023-04-18T20:05:06.347Z,11.00
2023-04-18T20:07:34.811Z,11.40
2023-04-18T20:10:02.471Z,12.00
2023-04-18T20:12:30.161Z,11.20
2023-04-18T20:14:58.981Z,12.00
2023-04-18T20:17:27.734Z,11.90
2023-04-18T20:19:57.333Z,12.30
2023-04-18T20:22:26.726Z,11.50
2023-04-18T20:24:57.272Z,12.90
2023-04-18T20:27:25.006Z,11.70
2023-04-18T20:29:52.657Z,12.10
2023-04-18T20:32:20.675Z,12.00
2023-04-18T20:34:48.531Z,11.30
2023-04-18T20:37:19.830Z,13.30
2023-04-18T20:39:47.713Z,12.80
2023-04-18T20:42:15.857Z,13.10
2023-04-18T20:44:44.793Z,14.30
2023-04-18T20:47:15.148Z,15.50
2023-04-18T20:49:43.279Z,13.50
2023-04-18T20:52:10.925Z,15.70
2023-04-18T20:54:38.575Z,15.50
2023-04-18T20:57:06.301Z,16.60
2023-04-18T20:59:33.903Z,14.90
2023-04-18T21:02:01.714Z,13.20
2023-04-18T21:04:29.610Z,12.90
2023-04-18T21:06:57.932Z,13.50
2023-04-18T21:09:25.707Z,12.00
2023-04-18T21:11:53.323Z,13.20
2023-04-18T21:14:20.971Z,13.30
2023-04-18T21:16:48.560Z,11.90
2023-04-18T21:19:16.415Z,11.30
2023-04-18T21:21:44.138Z,12.70
2023-04-18T21:24:11.852Z,13.00
2023-04-18T21:26:39.494Z,12.90
2023-04-18T21:29:07.590Z,13.00
2023-04-18T21:31:35.511Z,11.90
2023-04-18T21:34:04.627Z,11.40
2023-04-18T21:36:32.682Z,11.50
2023-04-18T21:39:00.979Z,11.30
2023-04-18T21:41:28.721Z,11.10
2023-04-18T21:43:56.398Z,11.80
2023-04-18T21:46:24.226Z,10.40
2023-04-18T21:48:52.041Z,10.40
2023-04-18T21:51:19.661Z,12.00
2023-04-18T21:53:47.338Z,10.50
2023-04-18T21:56:14.987Z,11.00
2023-04-18T21:58:42.625Z,11.40
2023-04-18T22:01:10.339Z,11.70
2023-04-18T22:03:38.178Z,12.80
2023-04-18T22:06:06.227Z,12.10
2023-04-18T22:08:33.889Z,12.00
2023-04-18T22:11:01.670Z,12.30
2023-04-18T22:13:35.683Z,12.10
2023-04-18T22:16:03.759Z,13.50
2023-04-18T22:18:34.576Z,13.20
2023-04-18T22:21:03.430Z,13.90
2023-04-18T22:23:31.295Z,14.20
2023-04-18T22:25:58.947Z,13.20
2023-04-18T22:28:28.179Z,12.80
2023-04-18T22:30:56.066Z,12.50
2023-04-18T22:33:24.381Z,12.20
2023-04-18T22:35:52.336Z,12.00
2023-04-18T22:38:19.948Z,12.50
2023-04-18T22:40:47.744Z,12.50
2023-04-18T22:43:15.350Z,13.40
2023-04-18T22:45:42.981Z,12.80
2023-04-18T22:48:13.282Z,12.00
2023-04-18T22:50:42.930Z,12.90
2023-04-18T22:53:11.150Z,13.80
2023-04-18T22:55:40.482Z,13.10
2023-04-18T22:58:08.796Z,12.10
2023-04-18T23:00:37.009Z,12.30
2023-04-18T23:03:04.864Z,13.40
2023-04-18T23:05:33.373Z,12.70
2023-04-18T23:08:01.050Z,12.90
2023-04-18T23:10:28.730Z,13.50
2023-04-18T23:12:56.727Z,13.30
2023-04-18T23:15:25.352Z,14.00
2023-04-18T23:17:53.391Z,12.30
2023-04-18T23:20:21.424Z,12.30
2023-04-18T23:22:51.572Z,12.10
2023-04-18T23:25:20.064Z,12.90
2023-04-18T23:27:48.023Z,12.30
2023-04-18T23:30:16.071Z,12.10
2023-04-18T23:32:44.048Z,13.20
2023-04-18T23:35:11.907Z,11.60
2023-04-18T23:37:39.577Z,13.60
2023-04-18T23:40:08.206Z,12.10
2023-04-18T23:42:35.984Z,11.80
2023-04-18T23:45:04.102Z,11.60
2023-04-18T23:47:31.734Z,12.00
2023-04-18T23:49:59.656Z,11.60
2023-04-18T23:52:27.280Z,10.80
2023-04-18T23:54:55.554Z,11.90
2023-04-18T23:57:23.180Z,12.40
2023-04-18T23:59:50.793Z,12.00
